sensor_id;sensor_type;location;lat;lon;timestamp;P1;durP1;ratioP1;P2;durP2;ratioP2
18606;SDS011;9433;42.678;23.360;2022-08-18T00:01:47;5.20;;;4.70;;
18606;SDS011;9433;42.678;23.360;2022-08-18T00:04:16;5.27;;;4.77;;
18606;SDS011;9433;42.678;23.360;2022-08-18T00:06:42;7.27;;;4.23;;
18606;SDS011;9433;42.678;23.360;2022-08-18T00:09:09;6.30;;;4.83;;
18606;SDS011;9433;42.678;23.360;2022-08-18T00:11:38;4.77;;;4.27;;
18606;SDS011;9433;42.678;23.360;2022-08-18T00:14:06;5.53;;;5.03;;
18606;SDS011;9433;42.678;23.360;2022-08-18T00:16:35;4.93;;;4.53;;
18606;SDS011;9433;42.678;23.360;2022-08-18T00:19:03;5.70;;;5.10;;
18606;SDS011;9433;42.678;23.360;2022-08-18T00:21:31;7.53;;;4.53;;
18606;SDS011;9433;42.678;23.360;2022-08-18T00:23:58;6.03;;;4.57;;
18606;SDS011;9433;42.678;23.360;2022-08-18T00:26:25;5.20;;;4.80;;
18606;SDS011;9433;42.678;23.360;2022-08-18T00:28:51;4.30;;;4.00;;
18606;SDS011;9433;42.678;23.360;2022-08-18T00:31:18;4.77;;;4.23;;
18606;SDS011;9433;42.678;23.360;2022-08-18T00:33:45;4.93;;;4.40;;
18606;SDS011;9433;42.678;23.360;2022-08-18T00:36:13;5.17;;;4.77;;
18606;SDS011;9433;42.678;23.360;2022-08-18T00:38:40;5.27;;;4.83;;
18606;SDS011;9433;42.678;23.360;2022-08-18T00:41:07;5.03;;;4.53;;
18606;SDS011;9433;42.678;23.360;2022-08-18T00:43:36;5.23;;;4.80;;
18606;SDS011;9433;42.678;23.360;2022-08-18T00:46:07;5.03;;;4.50;;
18606;SDS011;9433;42.678;23.360;2022-08-18T00:48:35;5.30;;;4.83;;
18606;SDS011;9433;42.678;23.360;2022-08-18T00:51:03;5.57;;;5.07;;
18606;SDS011;9433;42.678;23.360;2022-08-18T00:53:37;5.03;;;4.63;;
18606;SDS011;9433;42.678;23.360;2022-08-18T00:56:11;5.17;;;4.70;;
18606;SDS011;9433;42.678;23.360;2022-08-18T00:58:43;5.30;;;4.90;;
18606;SDS011;9433;42.678;23.360;2022-08-18T01:01:16;5.27;;;4.77;;
18606;SDS011;9433;42.678;23.360;2022-08-18T01:03:47;4.83;;;4.40;;
18606;SDS011;9433;42.678;23.360;2022-08-18T01:06:20;4.50;;;4.20;;
18606;SDS011;9433;42.678;23.360;2022-08-18T01:08:54;6.00;;;5.40;;
18606;SDS011;9433;42.678;23.360;2022-08-18T01:11:21;6.27;;;5.67;;
18606;SDS011;9433;42.678;23.360;2022-08-18T01:13:48;5.97;;;5.00;;
18606;SDS011;9433;42.678;23.360;2022-08-18T01:16:15;5.50;;;5.10;;
18606;SDS011;9433;42.678;23.360;2022-08-18T01:19:01;7.47;;;5.80;;
18606;SDS011;9433;42.678;23.360;2022-08-18T01:21:47;5.20;;;4.80;;
18606;SDS011;9433;42.678;23.360;2022-08-18T01:24:19;7.17;;;5.70;;
18606;SDS011;9433;42.678;23.360;2022-08-18T01:27:10;6.47;;;5.90;;
18606;SDS011;9433;42.678;23.360;2022-08-18T01:29:42;6.07;;;5.53;;
18606;SDS011;9433;42.678;23.360;2022-08-18T01:32:08;5.53;;;5.03;;
18606;SDS011;9433;42.678;23.360;2022-08-18T01:34:36;5.90;;;5.20;;
18606;SDS011;9433;42.678;23.360;2022-08-18T01:37:03;6.23;;;5.23;;
18606;SDS011;9433;42.678;23.360;2022-08-18T01:39:32;6.27;;;5.77;;
18606;SDS011;9433;42.678;23.360;2022-08-18T01:41:59;5.70;;;5.20;;
18606;SDS011;9433;42.678;23.360;2022-08-18T01:44:28;5.40;;;5.00;;
18606;SDS011;9433;42.678;23.360;2022-08-18T01:46:55;5.90;;;5.40;;
18606;SDS011;9433;42.678;23.360;2022-08-18T01:49:22;6.50;;;5.90;;
18606;SDS011;9433;42.678;23.360;2022-08-18T01:51:48;5.70;;;5.20;;
18606;SDS011;9433;42.678;23.360;2022-08-18T01:54:16;6.33;;;5.73;;
18606;SDS011;9433;42.678;23.360;2022-08-18T01:56:44;6.47;;;5.97;;
18606;SDS011;9433;42.678;23.360;2022-08-18T01:59:12;6.43;;;5.67;;
18606;SDS011;9433;42.678;23.360;2022-08-18T02:01:39;5.10;;;4.70;;
18606;SDS011;9433;42.678;23.360;2022-08-18T02:04:08;6.07;;;5.63;;
18606;SDS011;9433;42.678;23.360;2022-08-18T02:06:38;6.47;;;5.83;;
18606;SDS011;9433;42.678;23.360;2022-08-18T02:09:05;8.67;;;5.93;;
18606;SDS011;9433;42.678;23.360;2022-08-18T02:11:32;8.10;;;6.13;;
18606;SDS011;9433;42.678;23.360;2022-08-18T02:14:01;6.20;;;5.60;;
18606;SDS011;9433;42.678;23.360;2022-08-18T02:16:28;5.77;;;5.30;;
18606;SDS011;9433;42.678;23.360;2022-08-18T02:18:55;6.27;;;5.70;;
18606;SDS011;9433;42.678;23.360;2022-08-18T02:21:21;5.80;;;5.40;;
18606;SDS011;9433;42.678;23.360;2022-08-18T02:23:48;7.13;;;5.97;;
18606;SDS011;9433;42.678;23.360;2022-08-18T02:26:16;6.47;;;5.90;;
18606;SDS011;9433;42.678;23.360;2022-08-18T02:28:43;7.83;;;6.53;;
18606;SDS011;9433;42.678;23.360;2022-08-18T02:31:12;6.00;;;5.60;;
18606;SDS011;9433;42.678;23.360;2022-08-18T02:33:41;6.17;;;5.67;;
18606;SDS011;9433;42.678;23.360;2022-08-18T02:36:09;6.67;;;6.03;;
18606;SDS011;9433;42.678;23.360;2022-08-18T02:38:37;7.00;;;5.87;;
18606;SDS011;9433;42.678;23.360;2022-08-18T02:41:06;11.27;;;6.07;;
18606;SDS011;9433;42.678;23.360;2022-08-18T02:43:34;7.63;;;5.60;;
18606;SDS011;9433;42.678;23.360;2022-08-18T02:46:02;6.40;;;5.77;;
18606;SDS011;9433;42.678;23.360;2022-08-18T02:48:31;6.73;;;6.13;;
18606;SDS011;9433;42.678;23.360;2022-08-18T02:51:00;6.93;;;6.23;;
18606;SDS011;9433;42.678;23.360;2022-08-18T02:53:27;5.90;;;5.40;;
18606;SDS011;9433;42.678;23.360;2022-08-18T02:55:55;6.30;;;5.80;;
18606;SDS011;9433;42.678;23.360;2022-08-18T02:58:30;6.73;;;6.23;;
18606;SDS011;9433;42.678;23.360;2022-08-18T03:00:57;6.83;;;6.30;;
18606;SDS011;9433;42.678;23.360;2022-08-18T03:03:24;6.70;;;6.20;;
18606;SDS011;9433;42.678;23.360;2022-08-18T03:05:52;8.80;;;5.97;;
18606;SDS011;9433;42.678;23.360;2022-08-18T03:08:18;6.30;;;5.70;;
18606;SDS011;9433;42.678;23.360;2022-08-18T03:10:45;5.87;;;5.33;;
18606;SDS011;9433;42.678;23.360;2022-08-18T03:13:16;6.17;;;5.67;;
18606;SDS011;9433;42.678;23.360;2022-08-18T03:15:43;6.27;;;5.70;;
18606;SDS011;9433;42.678;23.360;2022-08-18T03:18:11;6.23;;;5.63;;
18606;SDS011;9433;42.678;23.360;2022-08-18T03:20:37;7.10;;;6.50;;
18606;SDS011;9433;42.678;23.360;2022-08-18T03:23:09;5.83;;;5.40;;
18606;SDS011;9433;42.678;23.360;2022-08-18T03:25:41;6.47;;;5.63;;
18606;SDS011;9433;42.678;23.360;2022-08-18T03:28:09;8.57;;;6.17;;
18606;SDS011;9433;42.678;23.360;2022-08-18T03:30:36;6.57;;;5.77;;
18606;SDS011;9433;42.678;23.360;2022-08-18T03:33:03;6.50;;;5.90;;
18606;SDS011;9433;42.678;23.360;2022-08-18T03:35:29;6.90;;;6.23;;
18606;SDS011;9433;42.678;23.360;2022-08-18T03:37:58;6.53;;;5.90;;
18606;SDS011;9433;42.678;23.360;2022-08-18T03:40:26;6.30;;;5.80;;
18606;SDS011;9433;42.678;23.360;2022-08-18T03:42:53;6.97;;;5.33;;
18606;SDS011;9433;42.678;23.360;2022-08-18T03:45:20;6.80;;;6.13;;
18606;SDS011;9433;42.678;23.360;2022-08-18T03:47:48;7.17;;;6.17;;
18606;SDS011;9433;42.678;23.360;2022-08-18T03:50:17;7.97;;;6.33;;
18606;SDS011;9433;42.678;23.360;2022-08-18T03:52:45;6.43;;;5.90;;
18606;SDS011;9433;42.678;23.360;2022-08-18T03:55:13;8.47;;;6.13;;
18606;SDS011;9433;42.678;23.360;2022-08-18T03:57:41;6.43;;;5.83;;
18606;SDS011;9433;42.678;23.360;2022-08-18T04:00:10;7.80;;;7.10;;
18606;SDS011;9433;42.678;23.360;2022-08-18T04:02:37;7.67;;;6.97;;
18606;SDS011;9433;42.678;23.360;2022-08-18T04:05:05;7.70;;;6.70;;
18606;SDS011;9433;42.678;23.360;2022-08-18T04:07:34;7.10;;;6.43;;
18606;SDS011;9433;42.678;23.360;2022-08-18T04:10:01;8.27;;;5.90;;
18606;SDS011;9433;42.678;23.360;2022-08-18T04:12:28;8.20;;;7.50;;
18606;SDS011;9433;42.678;23.360;2022-08-18T04:14:57;7.63;;;6.93;;
18606;SDS011;9433;42.678;23.360;2022-08-18T04:17:23;7.37;;;6.77;;
18606;SDS011;9433;42.678;23.360;2022-08-18T04:19:50;7.00;;;6.33;;
18606;SDS011;9433;42.678;23.360;2022-08-18T04:22:17;7.73;;;7.03;;
18606;SDS011;9433;42.678;23.360;2022-08-18T04:24:44;7.23;;;6.63;;
18606;SDS011;9433;42.678;23.360;2022-08-18T04:27:12;8.03;;;7.33;;
18606;SDS011;9433;42.678;23.360;2022-08-18T04:29:39;6.47;;;5.87;;
18606;SDS011;9433;42.678;23.360;2022-08-18T04:32:07;7.10;;;6.47;;
18606;SDS011;9433;42.678;23.360;2022-08-18T04:34:34;7.50;;;6.87;;
18606;SDS011;9433;42.678;23.360;2022-08-18T04:37:01;6.67;;;6.17;;
18606;SDS011;9433;42.678;23.360;2022-08-18T04:39:28;8.17;;;7.47;;
18606;SDS011;9433;42.678;23.360;2022-08-18T04:41:56;10.37;;;7.40;;
18606;SDS011;9433;42.678;23.360;2022-08-18T04:44:25;8.30;;;7.50;;
18606;SDS011;9433;42.678;23.360;2022-08-18T04:46:52;8.10;;;7.33;;
18606;SDS011;9433;42.678;23.360;2022-08-18T04:49:22;10.23;;;8.13;;
18606;SDS011;9433;42.678;23.360;2022-08-18T04:51:50;7.70;;;7.10;;
18606;SDS011;9433;42.678;23.360;2022-08-18T04:54:33;8.53;;;7.63;;
18606;SDS011;9433;42.678;23.360;2022-08-18T04:57:05;8.43;;;7.63;;
18606;SDS011;9433;42.678;23.360;2022-08-18T04:59:34;9.47;;;8.13;;
18606;SDS011;9433;42.678;23.360;2022-08-18T05:02:02;7.57;;;6.87;;
18606;SDS011;9433;42.678;23.360;2022-08-18T05:04:32;8.13;;;7.33;;
18606;SDS011;9433;42.678;23.360;2022-08-18T05:07:00;8.93;;;7.90;;
18606;SDS011;9433;42.678;23.360;2022-08-18T05:09:27;8.70;;;7.80;;
18606;SDS011;9433;42.678;23.360;2022-08-18T05:11:54;8.87;;;8.10;;
18606;SDS011;9433;42.678;23.360;2022-08-18T05:14:20;8.03;;;7.37;;
18606;SDS011;9433;42.678;23.360;2022-08-18T05:16:47;9.13;;;8.33;;
18606;SDS011;9433;42.678;23.360;2022-08-18T05:19:16;7.10;;;6.40;;
18606;SDS011;9433;42.678;23.360;2022-08-18T05:21:49;8.63;;;7.83;;
18606;SDS011;9433;42.678;23.360;2022-08-18T05:24:17;7.87;;;7.17;;
18606;SDS011;9433;42.678;23.360;2022-08-18T05:26:45;7.20;;;6.67;;
18606;SDS011;9433;42.678;23.360;2022-08-18T05:29:13;7.73;;;6.30;;
18606;SDS011;9433;42.678;23.360;2022-08-18T05:31:40;7.37;;;6.73;;
18606;SDS011;9433;42.678;23.360;2022-08-18T05:34:08;8.57;;;6.90;;
18606;SDS011;9433;42.678;23.360;2022-08-18T05:36:50;7.77;;;7.07;;
18606;SDS011;9433;42.678;23.360;2022-08-18T05:39:29;9.60;;;7.87;;
18606;SDS011;9433;42.678;23.360;2022-08-18T05:42:02;7.27;;;6.47;;
18606;SDS011;9433;42.678;23.360;2022-08-18T05:44:32;7.63;;;6.93;;
18606;SDS011;9433;42.678;23.360;2022-08-18T05:47:04;7.83;;;7.13;;
18606;SDS011;9433;42.678;23.360;2022-08-18T05:49:35;8.00;;;7.30;;
18606;SDS011;9433;42.678;23.360;2022-08-18T05:52:05;8.23;;;7.53;;
18606;SDS011;9433;42.678;23.360;2022-08-18T05:54:39;10.10;;;8.10;;
18606;SDS011;9433;42.678;23.360;2022-08-18T05:57:29;8.50;;;7.80;;
18606;SDS011;9433;42.678;23.360;2022-08-18T05:59:58;9.07;;;8.30;;
18606;SDS011;9433;42.678;23.360;2022-08-18T06:02:28;9.47;;;8.60;;
18606;SDS011;9433;42.678;23.360;2022-08-18T06:05:00;8.43;;;7.73;;
18606;SDS011;9433;42.678;23.360;2022-08-18T06:07:35;9.10;;;8.33;;
18606;SDS011;9433;42.678;23.360;2022-08-18T06:10:09;10.23;;;8.37;;
18606;SDS011;9433;42.678;23.360;2022-08-18T06:12:37;9.50;;;8.63;;
18606;SDS011;9433;42.678;23.360;2022-08-18T06:15:09;8.73;;;7.83;;
18606;SDS011;9433;42.678;23.360;2022-08-18T06:17:50;8.60;;;7.80;;
18606;SDS011;9433;42.678;23.360;2022-08-18T06:20:32;8.70;;;7.90;;
18606;SDS011;9433;42.678;23.360;2022-08-18T06:23:10;8.63;;;7.73;;
18606;SDS011;9433;42.678;23.360;2022-08-18T06:25:53;9.17;;;8.37;;
18606;SDS011;9433;42.678;23.360;2022-08-18T06:28:28;9.33;;;8.47;;
18606;SDS011;9433;42.678;23.360;2022-08-18T06:31:16;9.33;;;8.43;;
18606;SDS011;9433;42.678;23.360;2022-08-18T06:33:49;7.77;;;7.17;;
18606;SDS011;9433;42.678;23.360;2022-08-18T06:36:29;9.47;;;8.47;;
18606;SDS011;9433;42.678;23.360;2022-08-18T06:39:06;8.80;;;8.00;;
18606;SDS011;9433;42.678;23.360;2022-08-18T06:41:44;8.57;;;7.73;;
18606;SDS011;9433;42.678;23.360;2022-08-18T06:44:15;9.23;;;8.33;;
18606;SDS011;9433;42.678;23.360;2022-08-18T06:46:47;8.97;;;8.17;;
18606;SDS011;9433;42.678;23.360;2022-08-18T06:49:23;8.63;;;7.83;;
18606;SDS011;9433;42.678;23.360;2022-08-18T06:52:16;8.37;;;7.57;;
18606;SDS011;9433;42.678;23.360;2022-08-18T06:54:48;8.77;;;7.87;;
18606;SDS011;9433;42.678;23.360;2022-08-18T06:57:20;7.47;;;6.90;;
18606;SDS011;9433;42.678;23.360;2022-08-18T06:59:53;8.20;;;7.50;;
18606;SDS011;9433;42.678;23.360;2022-08-18T07:02:23;7.73;;;6.93;;
18606;SDS011;9433;42.678;23.360;2022-08-18T07:04:58;7.70;;;6.87;;
18606;SDS011;9433;42.678;23.360;2022-08-18T07:07:30;7.63;;;6.95;;
18606;SDS011;9433;42.678;23.360;2022-08-18T07:10:00;11.93;;;7.30;;
18606;SDS011;9433;42.678;23.360;2022-08-18T07:12:28;8.73;;;8.02;;
18606;SDS011;9433;42.678;23.360;2022-08-18T07:14:55;8.07;;;7.38;;
18606;SDS011;9433;42.678;23.360;2022-08-18T07:17:25;6.85;;;6.25;;
18606;SDS011;9433;42.678;23.360;2022-08-18T07:19:54;7.53;;;6.82;;
18606;SDS011;9433;42.678;23.360;2022-08-18T07:22:22;7.47;;;6.78;;
18606;SDS011;9433;42.678;23.360;2022-08-18T07:24:50;5.80;;;5.30;;
18606;SDS011;9433;42.678;23.360;2022-08-18T07:27:21;5.82;;;5.32;;
18606;SDS011;9433;42.678;23.360;2022-08-18T07:30:05;6.90;;;6.22;;
18606;SDS011;9433;42.678;23.360;2022-08-18T07:32:36;7.40;;;5.57;;
18606;SDS011;9433;42.678;23.360;2022-08-18T07:35:09;6.10;;;5.30;;
18606;SDS011;9433;42.678;23.360;2022-08-18T07:37:39;6.20;;;5.30;;
18606;SDS011;9433;42.678;23.360;2022-08-18T07:40:15;6.47;;;5.97;;
18606;SDS011;9433;42.678;23.360;2022-08-18T07:42:50;5.00;;;4.65;;
18606;SDS011;9433;42.678;23.360;2022-08-18T07:45:21;6.88;;;6.35;;
18606;SDS011;9433;42.678;23.360;2022-08-18T07:47:51;5.72;;;5.28;;
18606;SDS011;9433;42.678;23.360;2022-08-18T07:50:22;7.63;;;5.60;;
18606;SDS011;9433;42.678;23.360;2022-08-18T07:53:02;5.60;;;5.00;;
18606;SDS011;9433;42.678;23.360;2022-08-18T07:55:39;5.78;;;5.20;;
18606;SDS011;9433;42.678;23.360;2022-08-18T07:58:14;5.88;;;5.38;;
18606;SDS011;9433;42.678;23.360;2022-08-18T08:00:51;6.40;;;5.90;;
18606;SDS011;9433;42.678;23.360;2022-08-18T08:03:25;5.32;;;4.93;;
18606;SDS011;9433;42.678;23.360;2022-08-18T08:06:00;5.40;;;5.00;;
18606;SDS011;9433;42.678;23.360;2022-08-18T08:08:34;5.60;;;4.80;;
18606;SDS011;9433;42.678;23.360;2022-08-18T08:11:07;5.47;;;5.07;;
18606;SDS011;9433;42.678;23.360;2022-08-18T08:13:46;4.72;;;4.32;;
18606;SDS011;9433;42.678;23.360;2022-08-18T08:16:25;5.38;;;4.63;;
18606;SDS011;9433;42.678;23.360;2022-08-18T08:19:02;6.10;;;4.63;;
18606;SDS011;9433;42.678;23.360;2022-08-18T08:21:39;4.75;;;4.35;;
18606;SDS011;9433;42.678;23.360;2022-08-18T08:24:15;4.90;;;4.05;;
18606;SDS011;9433;42.678;23.360;2022-08-18T08:26:47;4.90;;;4.43;;
18606;SDS011;9433;42.678;23.360;2022-08-18T08:29:24;4.85;;;4.35;;
18606;SDS011;9433;42.678;23.360;2022-08-18T08:32:01;4.32;;;3.92;;
18606;SDS011;9433;42.678;23.360;2022-08-18T08:34:31;4.72;;;4.32;;
18606;SDS011;9433;42.678;23.360;2022-08-18T08:37:05;5.75;;;4.55;;
18606;SDS011;9433;42.678;23.360;2022-08-18T08:39:36;5.20;;;4.80;;
18606;SDS011;9433;42.678;23.360;2022-08-18T08:42:11;4.22;;;3.83;;
18606;SDS011;9433;42.678;23.360;2022-08-18T08:44:44;4.43;;;4.03;;
18606;SDS011;9433;42.678;23.360;2022-08-18T08:47:17;4.45;;;4.05;;
18606;SDS011;9433;42.678;23.360;2022-08-18T08:49:49;6.07;;;3.92;;
18606;SDS011;9433;42.678;23.360;2022-08-18T08:52:22;3.80;;;3.55;;
18606;SDS011;9433;42.678;23.360;2022-08-18T08:54:52;4.10;;;3.83;;
18606;SDS011;9433;42.678;23.360;2022-08-18T08:57:25;4.60;;;4.20;;
18606;SDS011;9433;42.678;23.360;2022-08-18T08:59:57;5.45;;;3.95;;
18606;SDS011;9433;42.678;23.360;2022-08-18T09:02:30;3.35;;;3.15;;
18606;SDS011;9433;42.678;23.360;2022-08-18T09:05:10;3.80;;;3.50;;
18606;SDS011;9433;42.678;23.360;2022-08-18T09:08:00;4.22;;;3.67;;
18606;SDS011;9433;42.678;23.360;2022-08-18T09:10:44;4.15;;;3.83;;
18606;SDS011;9433;42.678;23.360;2022-08-18T09:13:34;3.75;;;3.28;;
18606;SDS011;9433;42.678;23.360;2022-08-18T09:16:21;3.53;;;3.17;;
18606;SDS011;9433;42.678;23.360;2022-08-18T09:19:04;3.45;;;3.17;;
18606;SDS011;9433;42.678;23.360;2022-08-18T09:21:44;3.42;;;3.17;;
18606;SDS011;9433;42.678;23.360;2022-08-18T09:24:18;3.65;;;3.20;;
18606;SDS011;9433;42.678;23.360;2022-08-18T09:26:51;3.97;;;3.70;;
18606;SDS011;9433;42.678;23.360;2022-08-18T09:29:20;3.03;;;2.83;;
18606;SDS011;9433;42.678;23.360;2022-08-18T09:35:07;3.13;;;2.92;;
18606;SDS011;9433;42.678;23.360;2022-08-18T09:37:49;3.65;;;3.30;;
18606;SDS011;9433;42.678;23.360;2022-08-18T09:40:33;3.17;;;2.88;;
18606;SDS011;9433;42.678;23.360;2022-08-18T09:43:24;4.30;;;3.30;;
18606;SDS011;9433;42.678;23.360;2022-08-18T09:45:58;3.42;;;3.13;;
18606;SDS011;9433;42.678;23.360;2022-08-18T09:48:31;3.70;;;3.40;;
18606;SDS011;9433;42.678;23.360;2022-08-18T09:54:06;3.88;;;3.58;;
18606;SDS011;9433;42.678;23.360;2022-08-18T10:06:11;3.60;;;3.30;;
18606;SDS011;9433;42.678;23.360;2022-08-18T10:08:49;4.05;;;3.45;;
18606;SDS011;9433;42.678;23.360;2022-08-18T10:14:33;3.15;;;2.95;;
18606;SDS011;9433;42.678;23.360;2022-08-18T10:17:14;3.67;;;3.03;;
18606;SDS011;9433;42.678;23.360;2022-08-18T10:19:56;3.47;;;3.17;;
18606;SDS011;9433;42.678;23.360;2022-08-18T10:22:36;3.40;;;3.10;;
18606;SDS011;9433;42.678;23.360;2022-08-18T10:25:07;3.25;;;2.95;;
18606;SDS011;9433;42.678;23.360;2022-08-18T10:27:45;3.20;;;3.00;;
18606;SDS011;9433;42.678;23.360;2022-08-18T10:36:36;3.05;;;2.85;;
18606;SDS011;9433;42.678;23.360;2022-08-18T10:39:09;4.40;;;3.20;;
18606;SDS011;9433;42.678;23.360;2022-08-18T10:41:44;4.07;;;2.80;;
18606;SDS011;9433;42.678;23.360;2022-08-18T10:44:18;3.58;;;3.22;;
18606;SDS011;9433;42.678;23.360;2022-08-18T10:46:48;3.30;;;3.05;;
18606;SDS011;9433;42.678;23.360;2022-08-18T10:49:21;3.20;;;3.00;;
18606;SDS011;9433;42.678;23.360;2022-08-18T10:52:04;3.22;;;2.92;;
18606;SDS011;9433;42.678;23.360;2022-08-18T10:58:00;3.25;;;2.95;;
18606;SDS011;9433;42.678;23.360;2022-08-18T11:00:39;3.28;;;2.92;;
18606;SDS011;9433;42.678;23.360;2022-08-18T11:03:18;2.90;;;2.70;;
18606;SDS011;9433;42.678;23.360;2022-08-18T11:06:01;3.22;;;3.03;;
18606;SDS011;9433;42.678;23.360;2022-08-18T11:08:36;3.10;;;2.90;;
18606;SDS011;9433;42.678;23.360;2022-08-18T11:11:10;3.10;;;2.80;;
18606;SDS011;9433;42.678;23.360;2022-08-18T11:13:42;2.78;;;2.58;;
18606;SDS011;9433;42.678;23.360;2022-08-18T11:16:23;2.80;;;2.60;;
18606;SDS011;9433;42.678;23.360;2022-08-18T11:25:43;3.00;;;2.80;;
18606;SDS011;9433;42.678;23.360;2022-08-18T11:28:15;3.15;;;2.95;;
18606;SDS011;9433;42.678;23.360;2022-08-18T11:30:44;3.17;;;2.67;;
18606;SDS011;9433;42.678;23.360;2022-08-18T11:33:13;2.83;;;2.63;;
18606;SDS011;9433;42.678;23.360;2022-08-18T11:35:46;2.45;;;2.35;;
18606;SDS011;9433;42.678;23.360;2022-08-18T11:38:15;2.50;;;2.30;;
18606;SDS011;9433;42.678;23.360;2022-08-18T11:40:44;3.05;;;2.55;;
18606;SDS011;9433;42.678;23.360;2022-08-18T11:43:17;3.17;;;2.88;;
18606;SDS011;9433;42.678;23.360;2022-08-18T11:45:55;2.72;;;2.53;;
18606;SDS011;9433;42.678;23.360;2022-08-18T11:48:31;3.80;;;2.70;;
18606;SDS011;9433;42.678;23.360;2022-08-18T11:51:07;3.08;;;2.78;;
18606;SDS011;9433;42.678;23.360;2022-08-18T11:53:37;2.53;;;2.33;;
18606;SDS011;9433;42.678;23.360;2022-08-18T11:56:14;2.72;;;2.50;;
18606;SDS011;9433;42.678;23.360;2022-08-18T11:58:44;3.20;;;3.00;;
18606;SDS011;9433;42.678;23.360;2022-08-18T12:01:32;2.97;;;2.55;;
18606;SDS011;9433;42.678;23.360;2022-08-18T12:04:12;3.42;;;2.95;;
18606;SDS011;9433;42.678;23.360;2022-08-18T12:06:50;2.90;;;2.60;;
18606;SDS011;9433;42.678;23.360;2022-08-18T12:09:25;3.28;;;2.90;;
18606;SDS011;9433;42.678;23.360;2022-08-18T12:11:57;2.80;;;2.60;;
18606;SDS011;9433;42.678;23.360;2022-08-18T12:14:30;2.70;;;2.50;;
18606;SDS011;9433;42.678;23.360;2022-08-18T12:16:59;3.10;;;2.58;;
18606;SDS011;9433;42.678;23.360;2022-08-18T12:19:26;3.38;;;2.78;;
18606;SDS011;9433;42.678;23.360;2022-08-18T12:21:55;2.80;;;2.60;;
18606;SDS011;9433;42.678;23.360;2022-08-18T12:24:24;2.88;;;2.58;;
18606;SDS011;9433;42.678;23.360;2022-08-18T12:26:53;2.88;;;2.67;;
18606;SDS011;9433;42.678;23.360;2022-08-18T12:29:20;3.22;;;2.80;;
18606;SDS011;9433;42.678;23.360;2022-08-18T12:31:49;2.90;;;2.70;;
18606;SDS011;9433;42.678;23.360;2022-08-18T12:34:18;3.20;;;2.97;;
18606;SDS011;9433;42.678;23.360;2022-08-18T12:36:48;3.63;;;2.80;;
18606;SDS011;9433;42.678;23.360;2022-08-18T12:39:16;3.50;;;2.97;;
18606;SDS011;9433;42.678;23.360;2022-08-18T12:41:43;2.58;;;2.42;;
18606;SDS011;9433;42.678;23.360;2022-08-18T12:44:10;2.90;;;2.67;;
18606;SDS011;9433;42.678;23.360;2022-08-18T12:46:37;2.90;;;2.70;;
18606;SDS011;9433;42.678;23.360;2022-08-18T12:49:05;3.22;;;2.92;;
18606;SDS011;9433;42.678;23.360;2022-08-18T12:51:39;2.97;;;2.78;;
18606;SDS011;9433;42.678;23.360;2022-08-18T12:54:06;2.85;;;2.60;;
18606;SDS011;9433;42.678;23.360;2022-08-18T12:56:33;3.20;;;2.90;;
18606;SDS011;9433;42.678;23.360;2022-08-18T12:59:00;3.30;;;2.72;;
18606;SDS011;9433;42.678;23.360;2022-08-18T13:01:30;3.13;;;2.83;;
18606;SDS011;9433;42.678;23.360;2022-08-18T13:03:57;2.97;;;2.78;;
18606;SDS011;9433;42.678;23.360;2022-08-18T13:06:26;3.30;;;3.00;;
18606;SDS011;9433;42.678;23.360;2022-08-18T13:08:53;2.80;;;2.60;;
18606;SDS011;9433;42.678;23.360;2022-08-18T13:11:21;2.80;;;2.60;;
18606;SDS011;9433;42.678;23.360;2022-08-18T13:13:49;3.28;;;2.60;;
18606;SDS011;9433;42.678;23.360;2022-08-18T13:16:17;3.22;;;2.92;;
18606;SDS011;9433;42.678;23.360;2022-08-18T13:18:43;3.25;;;2.95;;
18606;SDS011;9433;42.678;23.360;2022-08-18T13:21:12;2.78;;;2.58;;
18606;SDS011;9433;42.678;23.360;2022-08-18T13:23:41;2.95;;;2.65;;
18606;SDS011;9433;42.678;23.360;2022-08-18T13:26:10;3.20;;;2.90;;
18606;SDS011;9433;42.678;23.360;2022-08-18T13:28:41;3.42;;;2.75;;
18606;SDS011;9433;42.678;23.360;2022-08-18T13:31:08;3.45;;;3.10;;
18606;SDS011;9433;42.678;23.360;2022-08-18T13:33:35;2.63;;;2.42;;
18606;SDS011;9433;42.678;23.360;2022-08-18T13:36:02;2.78;;;2.58;;
18606;SDS011;9433;42.678;23.360;2022-08-18T13:38:29;3.33;;;2.92;;
18606;SDS011;9433;42.678;23.360;2022-08-18T13:40:57;2.92;;;2.72;;
18606;SDS011;9433;42.678;23.360;2022-08-18T13:43:26;4.28;;;2.97;;
18606;SDS011;9433;42.678;23.360;2022-08-18T13:45:56;2.95;;;2.75;;
18606;SDS011;9433;42.678;23.360;2022-08-18T13:48:24;3.05;;;2.85;;
18606;SDS011;9433;42.678;23.360;2022-08-18T13:50:51;4.05;;;3.22;;
18606;SDS011;9433;42.678;23.360;2022-08-18T13:53:19;3.28;;;2.97;;
18606;SDS011;9433;42.678;23.360;2022-08-18T13:55:46;2.75;;;2.55;;
18606;SDS011;9433;42.678;23.360;2022-08-18T13:58:14;2.80;;;2.60;;
18606;SDS011;9433;42.678;23.360;2022-08-18T14:00:42;3.10;;;2.80;;
18606;SDS011;9433;42.678;23.360;2022-08-18T14:03:09;4.55;;;2.80;;
18606;SDS011;9433;42.678;23.360;2022-08-18T14:05:37;3.38;;;3.08;;
18606;SDS011;9433;42.678;23.360;2022-08-18T14:08:04;2.78;;;2.58;;
18606;SDS011;9433;42.678;23.360;2022-08-18T14:10:31;2.53;;;2.33;;
18606;SDS011;9433;42.678;23.360;2022-08-18T14:12:59;2.80;;;2.60;;
18606;SDS011;9433;42.678;23.360;2022-08-18T14:15:28;2.70;;;2.50;;
18606;SDS011;9433;42.678;23.360;2022-08-18T14:17:55;3.63;;;2.65;;
18606;SDS011;9433;42.678;23.360;2022-08-18T14:20:22;3.15;;;2.78;;
18606;SDS011;9433;42.678;23.360;2022-08-18T14:23:06;2.63;;;2.42;;
18606;SDS011;9433;42.678;23.360;2022-08-18T14:25:51;3.35;;;2.95;;
18606;SDS011;9433;42.678;23.360;2022-08-18T14:28:35;3.85;;;2.70;;
18606;SDS011;9433;42.678;23.360;2022-08-18T14:31:03;3.15;;;2.85;;
18606;SDS011;9433;42.678;23.360;2022-08-18T14:33:30;3.20;;;2.90;;
18606;SDS011;9433;42.678;23.360;2022-08-18T14:35:58;3.67;;;3.10;;
18606;SDS011;9433;42.678;23.360;2022-08-18T14:38:24;2.90;;;2.70;;
18606;SDS011;9433;42.678;23.360;2022-08-18T14:40:51;3.40;;;3.10;;
18606;SDS011;9433;42.678;23.360;2022-08-18T14:43:19;3.38;;;2.70;;
18606;SDS011;9433;42.678;23.360;2022-08-18T14:45:46;3.03;;;2.80;;
18606;SDS011;9433;42.678;23.360;2022-08-18T14:48:16;3.25;;;3.05;;
18606;SDS011;9433;42.678;23.360;2022-08-18T14:50:45;3.67;;;2.83;;
18606;SDS011;9433;42.678;23.360;2022-08-18T14:53:14;3.28;;;2.92;;
18606;SDS011;9433;42.678;23.360;2022-08-18T14:55:44;3.03;;;2.70;;
18606;SDS011;9433;42.678;23.360;2022-08-18T14:58:11;3.35;;;3.05;;
18606;SDS011;9433;42.678;23.360;2022-08-18T15:00:38;2.72;;;2.53;;
18606;SDS011;9433;42.678;23.360;2022-08-18T15:03:05;4.00;;;3.60;;
18606;SDS011;9433;42.678;23.360;2022-08-18T15:05:33;3.92;;;3.20;;
18606;SDS011;9433;42.678;23.360;2022-08-18T15:08:00;3.10;;;2.90;;
18606;SDS011;9433;42.678;23.360;2022-08-18T15:10:29;3.22;;;3.03;;
18606;SDS011;9433;42.678;23.360;2022-08-18T15:12:56;3.30;;;3.10;;
18606;SDS011;9433;42.678;23.360;2022-08-18T15:15:24;3.15;;;2.95;;
18606;SDS011;9433;42.678;23.360;2022-08-18T15:17:52;3.28;;;2.97;;
18606;SDS011;9433;42.678;23.360;2022-08-18T15:20:19;3.38;;;3.10;;
18606;SDS011;9433;42.678;23.360;2022-08-18T15:22:49;4.78;;;3.22;;
18606;SDS011;9433;42.678;23.360;2022-08-18T15:25:33;2.90;;;2.70;;
18606;SDS011;9433;42.678;23.360;2022-08-18T15:28:07;3.13;;;2.92;;
18606;SDS011;9433;42.678;23.360;2022-08-18T15:30:34;3.30;;;3.00;;
18606;SDS011;9433;42.678;23.360;2022-08-18T15:33:01;3.60;;;3.15;;
18606;SDS011;9433;42.678;23.360;2022-08-18T15:35:29;4.95;;;3.15;;
18606;SDS011;9433;42.678;23.360;2022-08-18T15:37:58;3.60;;;3.30;;
18606;SDS011;9433;42.678;23.360;2022-08-18T15:40:26;3.90;;;3.60;;
18606;SDS011;9433;42.678;23.360;2022-08-18T15:42:55;3.75;;;3.45;;
18606;SDS011;9433;42.678;23.360;2022-08-18T15:45:25;3.97;;;3.67;;
18606;SDS011;9433;42.678;23.360;2022-08-18T15:47:56;4.00;;;3.70;;